sensor_id;sensor_type;location;lat;lon;timestamp;P1;durP1;ratioP1;P2;durP2;ratioP2
51558;SDS011;61650;48.882;2.092;2022-08-19T00:01:49;8.00;;;7.30;;
51558;SDS011;61650;48.882;2.092;2022-08-19T00:04:17;8.03;;;7.33;;
51558;SDS011;61650;48.882;2.092;2022-08-19T00:06:46;11.80;;;7.17;;
51558;SDS011;61650;48.882;2.092;2022-08-19T00:09:13;7.13;;;6.47;;
51558;SDS011;61650;48.882;2.092;2022-08-19T00:11:41;7.70;;;6.80;;
51558;SDS011;61650;48.882;2.092;2022-08-19T00:14:08;7.67;;;6.87;;
51558;SDS011;61650;48.882;2.092;2022-08-19T00:16:39;8.63;;;6.83;;
51558;SDS011;61650;48.882;2.092;2022-08-19T00:19:06;7.57;;;6.87;;
51558;SDS011;61650;48.882;2.092;2022-08-19T00:21:32;8.10;;;7.10;;
51558;SDS011;61650;48.882;2.092;2022-08-19T00:23:58;7.57;;;6.77;;
51558;SDS011;61650;48.882;2.092;2022-08-19T00:26:25;8.53;;;7.30;;
51558;SDS011;61650;48.882;2.092;2022-08-19T00:28:51;7.97;;;7.17;;
51558;SDS011;61650;48.882;2.092;2022-08-19T00:31:17;7.90;;;7.10;;
51558;SDS011;61650;48.882;2.092;2022-08-19T00:33:43;8.13;;;7.20;;
51558;SDS011;61650;48.882;2.092;2022-08-19T00:36:08;9.00;;;7.57;;
51558;SDS011;61650;48.882;2.092;2022-08-19T00:38:35;8.40;;;7.60;;
51558;SDS011;61650;48.882;2.092;2022-08-19T00:41:03;7.00;;;6.40;;
51558;SDS011;61650;48.882;2.092;2022-08-19T00:43:32;8.50;;;7.70;;
51558;SDS011;61650;48.882;2.092;2022-08-19T00:45:58;7.60;;;6.90;;
51558;SDS011;61650;48.882;2.092;2022-08-19T00:48:24;8.10;;;7.30;;
51558;SDS011;61650;48.882;2.092;2022-08-19T00:50:50;7.40;;;6.80;;
51558;SDS011;61650;48.882;2.092;2022-08-19T00:53:20;7.57;;;6.80;;
51558;SDS011;61650;48.882;2.092;2022-08-19T00:55:49;8.90;;;7.57;;
51558;SDS011;61650;48.882;2.092;2022-08-19T00:58:18;8.10;;;7.40;;
51558;SDS011;61650;48.882;2.092;2022-08-19T01:00:47;9.80;;;7.17;;
51558;SDS011;61650;48.882;2.092;2022-08-19T01:03:17;8.43;;;7.60;;
51558;SDS011;61650;48.882;2.092;2022-08-19T01:05:46;7.20;;;6.50;;
51558;SDS011;61650;48.882;2.092;2022-08-19T01:08:14;7.50;;;6.83;;
51558;SDS011;61650;48.882;2.092;2022-08-19T01:10:52;8.13;;;7.33;;
51558;SDS011;61650;48.882;2.092;2022-08-19T01:13:22;8.27;;;7.43;;
51558;SDS011;61650;48.882;2.092;2022-08-19T01:15:53;7.07;;;6.47;;
51558;SDS011;61650;48.882;2.092;2022-08-19T01:18:22;8.13;;;7.13;;
51558;SDS011;61650;48.882;2.092;2022-08-19T01:20:50;7.67;;;6.97;;
51558;SDS011;61650;48.882;2.092;2022-08-19T01:23:17;7.57;;;6.97;;
51558;SDS011;61650;48.882;2.092;2022-08-19T01:25:44;6.90;;;6.20;;
51558;SDS011;61650;48.882;2.092;2022-08-19T01:28:18;8.27;;;7.47;;
51558;SDS011;61650;48.882;2.092;2022-08-19T01:30:46;8.10;;;6.77;;
51558;SDS011;61650;48.882;2.092;2022-08-19T01:33:13;7.80;;;7.10;;
51558;SDS011;61650;48.882;2.092;2022-08-19T01:35:40;8.00;;;6.90;;
51558;SDS011;61650;48.882;2.092;2022-08-19T01:38:07;7.83;;;7.03;;
51558;SDS011;61650;48.882;2.092;2022-08-19T01:40:37;7.57;;;6.87;;
51558;SDS011;61650;48.882;2.092;2022-08-19T01:43:05;7.17;;;6.53;;
51558;SDS011;61650;48.882;2.092;2022-08-19T01:45:32;6.67;;;5.97;;
51558;SDS011;61650;48.882;2.092;2022-08-19T01:47:59;9.40;;;7.70;;
51558;SDS011;61650;48.882;2.092;2022-08-19T01:50:25;8.23;;;7.50;;
51558;SDS011;61650;48.882;2.092;2022-08-19T01:52:51;7.20;;;6.50;;
51558;SDS011;61650;48.882;2.092;2022-08-19T01:55:18;8.33;;;7.43;;
51558;SDS011;61650;48.882;2.092;2022-08-19T01:57:48;9.83;;;7.47;;
51558;SDS011;61650;48.882;2.092;2022-08-19T02:00:19;7.63;;;6.93;;
51558;SDS011;61650;48.882;2.092;2022-08-19T02:02:46;7.50;;;6.80;;
51558;SDS011;61650;48.882;2.092;2022-08-19T02:05:12;7.20;;;6.50;;
51558;SDS011;61650;48.882;2.092;2022-08-19T02:07:39;9.67;;;6.60;;
51558;SDS011;61650;48.882;2.092;2022-08-19T02:10:06;8.43;;;6.53;;
51558;SDS011;61650;48.882;2.092;2022-08-19T02:12:36;8.10;;;7.30;;
51558;SDS011;61650;48.882;2.092;2022-08-19T02:15:03;7.97;;;7.27;;
51558;SDS011;61650;48.882;2.092;2022-08-19T02:17:29;7.80;;;7.10;;
51558;SDS011;61650;48.882;2.092;2022-08-19T02:19:56;7.70;;;6.90;;
51558;SDS011;61650;48.882;2.092;2022-08-19T02:22:22;8.07;;;7.27;;
51558;SDS011;61650;48.882;2.092;2022-08-19T02:24:50;8.87;;;8.03;;
51558;SDS011;61650;48.882;2.092;2022-08-19T02:27:19;7.50;;;6.80;;
51558;SDS011;61650;48.882;2.092;2022-08-19T02:29:45;9.47;;;8.10;;
51558;SDS011;61650;48.882;2.092;2022-08-19T02:32:13;8.90;;;8.10;;
51558;SDS011;61650;48.882;2.092;2022-08-19T02:34:39;8.43;;;7.60;;
51558;SDS011;61650;48.882;2.092;2022-08-19T02:37:05;8.20;;;7.40;;
51558;SDS011;61650;48.882;2.092;2022-08-19T02:39:51;8.27;;;7.47;;
51558;SDS011;61650;48.882;2.092;2022-08-19T02:42:17;8.73;;;7.60;;
51558;SDS011;61650;48.882;2.092;2022-08-19T02:44:42;9.33;;;8.07;;
51558;SDS011;61650;48.882;2.092;2022-08-19T02:47:09;8.63;;;7.80;;
51558;SDS011;61650;48.882;2.092;2022-08-19T02:49:35;9.27;;;8.20;;
51558;SDS011;61650;48.882;2.092;2022-08-19T02:52:00;8.60;;;7.30;;
51558;SDS011;61650;48.882;2.092;2022-08-19T02:54:27;8.40;;;7.40;;
51558;SDS011;61650;48.882;2.092;2022-08-19T02:56:53;8.80;;;8.00;;
51558;SDS011;61650;48.882;2.092;2022-08-19T02:59:19;7.97;;;6.97;;
51558;SDS011;61650;48.882;2.092;2022-08-19T03:01:45;11.20;;;9.07;;
51558;SDS011;61650;48.882;2.092;2022-08-19T03:04:11;9.33;;;8.33;;
51558;SDS011;61650;48.882;2.092;2022-08-19T03:06:39;9.40;;;8.37;;
51558;SDS011;61650;48.882;2.092;2022-08-19T03:09:06;9.53;;;8.60;;
51558;SDS011;61650;48.882;2.092;2022-08-19T03:11:32;9.00;;;8.10;;
51558;SDS011;61650;48.882;2.092;2022-08-19T03:13:58;8.87;;;8.00;;
51558;SDS011;61650;48.882;2.092;2022-08-19T03:16:25;8.83;;;7.97;;
51558;SDS011;61650;48.882;2.092;2022-08-19T03:18:53;8.60;;;7.70;;
51558;SDS011;61650;48.882;2.092;2022-08-19T03:21:21;9.63;;;8.63;;
51558;SDS011;61650;48.882;2.092;2022-08-19T03:23:50;10.40;;;7.77;;
51558;SDS011;61650;48.882;2.092;2022-08-19T03:26:18;8.47;;;7.70;;
51558;SDS011;61650;48.882;2.092;2022-08-19T03:28:44;10.93;;;8.20;;
51558;SDS011;61650;48.882;2.092;2022-08-19T03:31:15;9.23;;;7.70;;
51558;SDS011;61650;48.882;2.092;2022-08-19T03:33:42;10.10;;;8.93;;
51558;SDS011;61650;48.882;2.092;2022-08-19T03:36:10;10.00;;;9.00;;
51558;SDS011;61650;48.882;2.092;2022-08-19T03:38:42;9.50;;;8.37;;
51558;SDS011;61650;48.882;2.092;2022-08-19T03:41:14;9.53;;;8.53;;
51558;SDS011;61650;48.882;2.092;2022-08-19T03:43:42;9.90;;;8.20;;
51558;SDS011;61650;48.882;2.092;2022-08-19T03:46:12;10.43;;;8.30;;
51558;SDS011;61650;48.882;2.092;2022-08-19T03:48:41;9.83;;;8.83;;
51558;SDS011;61650;48.882;2.092;2022-08-19T03:51:14;8.70;;;7.90;;
51558;SDS011;61650;48.882;2.092;2022-08-19T03:53:42;9.00;;;7.67;;
51558;SDS011;61650;48.882;2.092;2022-08-19T03:56:09;10.67;;;8.60;;
51558;SDS011;61650;48.882;2.092;2022-08-19T03:58:35;9.40;;;7.97;;
51558;SDS011;61650;48.882;2.092;2022-08-19T04:01:02;9.70;;;8.70;;
51558;SDS011;61650;48.882;2.092;2022-08-19T04:03:36;10.77;;;8.80;;
51558;SDS011;61650;48.882;2.092;2022-08-19T04:06:10;9.50;;;8.40;;
51558;SDS011;61650;48.882;2.092;2022-08-19T04:08:41;11.30;;;9.23;;
51558;SDS011;61650;48.882;2.092;2022-08-19T04:11:11;10.17;;;9.17;;
51558;SDS011;61650;48.882;2.092;2022-08-19T04:13:38;9.80;;;8.63;;
51558;SDS011;61650;48.882;2.092;2022-08-19T04:16:04;8.77;;;7.87;;
51558;SDS011;61650;48.882;2.092;2022-08-19T04:18:31;8.73;;;7.83;;
51558;SDS011;61650;48.882;2.092;2022-08-19T04:20:59;8.93;;;7.80;;
51558;SDS011;61650;48.882;2.092;2022-08-19T04:23:25;9.27;;;8.30;;
51558;SDS011;61650;48.882;2.092;2022-08-19T04:25:53;9.03;;;8.13;;
51558;SDS011;61650;48.882;2.092;2022-08-19T04:28:19;8.90;;;7.90;;
51558;SDS011;61650;48.882;2.092;2022-08-19T04:30:45;8.33;;;7.40;;
51558;SDS011;61650;48.882;2.092;2022-08-19T04:33:13;7.97;;;7.20;;
51558;SDS011;61650;48.882;2.092;2022-08-19T04:35:41;8.60;;;7.80;;
51558;SDS011;61650;48.882;2.092;2022-08-19T04:38:10;8.27;;;7.47;;
51558;SDS011;61650;48.882;2.092;2022-08-19T04:40:40;9.27;;;8.27;;
51558;SDS011;61650;48.882;2.092;2022-08-19T04:43:28;11.13;;;8.73;;
51558;SDS011;61650;48.882;2.092;2022-08-19T04:45:54;8.70;;;7.90;;
51558;SDS011;61650;48.882;2.092;2022-08-19T04:48:21;9.43;;;8.53;;
51558;SDS011;61650;48.882;2.092;2022-08-19T04:50:51;9.90;;;7.63;;
51558;SDS011;61650;48.882;2.092;2022-08-19T04:53:23;8.57;;;7.40;;
51558;SDS011;61650;48.882;2.092;2022-08-19T04:55:53;9.10;;;8.20;;
51558;SDS011;61650;48.882;2.092;2022-08-19T04:58:21;8.60;;;7.80;;
51558;SDS011;61650;48.882;2.092;2022-08-19T05:00:47;10.97;;;9.23;;
51558;SDS011;61650;48.882;2.092;2022-08-19T05:03:13;9.10;;;8.30;;
51558;SDS011;61650;48.882;2.092;2022-08-19T05:05:42;8.83;;;7.70;;
51558;SDS011;61650;48.882;2.092;2022-08-19T05:08:09;8.60;;;7.73;;
51558;SDS011;61650;48.882;2.092;2022-08-19T05:10:35;7.93;;;7.13;;
51558;SDS011;61650;48.882;2.092;2022-08-19T05:13:03;9.20;;;7.13;;
51558;SDS011;61650;48.882;2.092;2022-08-19T05:15:29;8.43;;;6.80;;
51558;SDS011;61650;48.882;2.092;2022-08-19T05:17:55;7.83;;;6.80;;
51558;SDS011;61650;48.882;2.092;2022-08-19T05:20:40;8.17;;;6.70;;
51558;SDS011;61650;48.882;2.092;2022-08-19T05:23:24;7.03;;;6.33;;
51558;SDS011;61650;48.882;2.092;2022-08-19T05:25:50;10.43;;;6.93;;
51558;SDS011;61650;48.882;2.092;2022-08-19T05:28:17;7.43;;;6.73;;
51558;SDS011;61650;48.882;2.092;2022-08-19T05:30:43;7.60;;;6.90;;
51558;SDS011;61650;48.882;2.092;2022-08-19T05:33:10;7.20;;;6.50;;
51558;SDS011;61650;48.882;2.092;2022-08-19T05:35:37;8.23;;;7.17;;
51558;SDS011;61650;48.882;2.092;2022-08-19T05:38:04;6.73;;;6.13;;
51558;SDS011;61650;48.882;2.092;2022-08-19T05:40:31;6.90;;;6.20;;
51558;SDS011;61650;48.882;2.092;2022-08-19T05:43:00;6.83;;;5.93;;
51558;SDS011;61650;48.882;2.092;2022-08-19T05:45:27;6.57;;;5.97;;
51558;SDS011;61650;48.882;2.092;2022-08-19T05:47:52;6.43;;;5.90;;
51558;SDS011;61650;48.882;2.092;2022-08-19T05:50:19;6.40;;;5.80;;
51558;SDS011;61650;48.882;2.092;2022-08-19T05:52:45;6.37;;;5.60;;
51558;SDS011;61650;48.882;2.092;2022-08-19T05:55:10;7.53;;;5.37;;
51558;SDS011;61650;48.882;2.092;2022-08-19T05:57:36;4.83;;;4.33;;
51558;SDS011;61650;48.882;2.092;2022-08-19T06:00:03;4.73;;;4.10;;
51558;SDS011;61650;48.882;2.092;2022-08-19T06:02:36;3.80;;;3.50;;
51558;SDS011;61650;48.882;2.092;2022-08-19T06:05:02;3.90;;;3.60;;
51558;SDS011;61650;48.882;2.092;2022-08-19T06:07:33;3.63;;;3.30;;
51558;SDS011;61650;48.882;2.092;2022-08-19T06:09:58;5.67;;;3.33;;
51558;SDS011;61650;48.882;2.092;2022-08-19T06:12:24;3.83;;;3.27;;
51558;SDS011;61650;48.882;2.092;2022-08-19T06:14:53;4.40;;;3.33;;
51558;SDS011;61650;48.882;2.092;2022-08-19T06:17:19;5.17;;;3.27;;
51558;SDS011;61650;48.882;2.092;2022-08-19T06:19:47;3.60;;;3.03;;
51558;SDS011;61650;48.882;2.092;2022-08-19T06:22:14;5.77;;;3.87;;
51558;SDS011;61650;48.882;2.092;2022-08-19T06:24:41;4.13;;;3.60;;
51558;SDS011;61650;48.882;2.092;2022-08-19T06:27:06;3.37;;;3.07;;
51558;SDS011;61650;48.882;2.092;2022-08-19T06:29:33;3.57;;;3.13;;
51558;SDS011;61650;48.882;2.092;2022-08-19T06:32:00;3.20;;;2.90;;
51558;SDS011;61650;48.882;2.092;2022-08-19T06:34:28;3.80;;;3.07;;
51558;SDS011;61650;48.882;2.092;2022-08-19T06:36:57;3.40;;;3.10;;
51558;SDS011;61650;48.882;2.092;2022-08-19T06:39:27;2.77;;;2.57;;
51558;SDS011;61650;48.882;2.092;2022-08-19T06:41:56;3.07;;;2.60;;
51558;SDS011;61650;48.882;2.092;2022-08-19T06:44:24;4.30;;;2.50;;
51558;SDS011;61650;48.882;2.092;2022-08-19T06:46:51;3.03;;;2.70;;
51558;SDS011;61650;48.882;2.092;2022-08-19T06:49:18;2.83;;;2.40;;
51558;SDS011;61650;48.882;2.092;2022-08-19T06:51:45;2.80;;;2.50;;
51558;SDS011;61650;48.882;2.092;2022-08-19T06:54:15;3.20;;;2.40;;
51558;SDS011;61650;48.882;2.092;2022-08-19T06:56:42;2.53;;;2.27;;
51558;SDS011;61650;48.882;2.092;2022-08-19T06:59:11;4.80;;;2.73;;
51558;SDS011;61650;48.882;2.092;2022-08-19T07:01:40;3.07;;;2.30;;
51558;SDS011;61650;48.882;2.092;2022-08-19T07:04:11;2.63;;;2.40;;
51558;SDS011;61650;48.882;2.092;2022-08-19T07:06:38;2.30;;;2.07;;
51558;SDS011;61650;48.882;2.092;2022-08-19T07:09:05;5.93;;;2.40;;
51558;SDS011;61650;48.882;2.092;2022-08-19T07:11:32;3.23;;;2.17;;
51558;SDS011;61650;48.882;2.092;2022-08-19T07:13:59;2.33;;;2.20;;
51558;SDS011;61650;48.882;2.092;2022-08-19T07:16:26;2.67;;;2.10;;
51558;SDS011;61650;48.882;2.092;2022-08-19T07:18:52;3.50;;;2.17;;
51558;SDS011;61650;48.882;2.092;2022-08-19T07:21:19;3.23;;;2.23;;
51558;SDS011;61650;48.882;2.092;2022-08-19T07:23:47;2.53;;;2.00;;
51558;SDS011;61650;48.882;2.092;2022-08-19T07:26:15;2.10;;;1.90;;
51558;SDS011;61650;48.882;2.092;2022-08-19T07:28:44;2.43;;;2.23;;
51558;SDS011;61650;48.882;2.092;2022-08-19T07:31:12;1.70;;;1.50;;
51558;SDS011;61650;48.882;2.092;2022-08-19T07:33:39;2.30;;;1.70;;
51558;SDS011;61650;48.882;2.092;2022-08-19T07:36:08;4.20;;;2.07;;
51558;SDS011;61650;48.882;2.092;2022-08-19T07:38:36;3.00;;;2.30;;
51558;SDS011;61650;48.882;2.092;2022-08-19T07:41:04;3.57;;;1.93;;
51558;SDS011;61650;48.882;2.092;2022-08-19T07:43:30;2.20;;;1.90;;
51558;SDS011;61650;48.882;2.092;2022-08-19T07:45:56;2.03;;;1.83;;
51558;SDS011;61650;48.882;2.092;2022-08-19T07:48:26;3.00;;;1.70;;
51558;SDS011;61650;48.882;2.092;2022-08-19T07:50:57;2.10;;;1.67;;
51558;SDS011;61650;48.882;2.092;2022-08-19T07:53:29;2.60;;;1.90;;
51558;SDS011;61650;48.882;2.092;2022-08-19T07:55:57;2.30;;;2.10;;
51558;SDS011;61650;48.882;2.092;2022-08-19T07:58:36;4.17;;;1.80;;
51558;SDS011;61650;48.882;2.092;2022-08-19T08:01:04;4.60;;;1.60;;
51558;SDS011;61650;48.882;2.092;2022-08-19T08:03:32;4.43;;;1.80;;
51558;SDS011;61650;48.882;2.092;2022-08-19T08:06:17;2.77;;;2.07;;
51558;SDS011;61650;48.882;2.092;2022-08-19T08:09:02;2.53;;;1.70;;
51558;SDS011;61650;48.882;2.092;2022-08-19T08:11:49;2.97;;;2.37;;
51558;SDS011;61650;48.882;2.092;2022-08-19T08:14:34;2.63;;;1.90;;
51558;SDS011;61650;48.882;2.092;2022-08-19T08:17:08;3.13;;;2.00;;
51558;SDS011;61650;48.882;2.092;2022-08-19T08:19:34;2.30;;;1.63;;
51558;SDS011;61650;48.882;2.092;2022-08-19T08:22:01;2.17;;;1.70;;
51558;SDS011;61650;48.882;2.092;2022-08-19T08:24:29;2.83;;;2.10;;
51558;SDS011;61650;48.882;2.092;2022-08-19T08:26:59;3.27;;;2.03;;
51558;SDS011;61650;48.882;2.092;2022-08-19T08:29:26;1.97;;;1.63;;
51558;SDS011;61650;48.882;2.092;2022-08-19T08:31:52;2.60;;;1.90;;
51558;SDS011;61650;48.882;2.092;2022-08-19T08:34:19;2.00;;;1.83;;
51558;SDS011;61650;48.882;2.092;2022-08-19T08:36:45;2.27;;;2.00;;
51558;SDS011;61650;48.882;2.092;2022-08-19T08:39:11;2.23;;;1.60;;
51558;SDS011;61650;48.882;2.092;2022-08-19T08:41:47;2.33;;;2.07;;
51558;SDS011;61650;48.882;2.092;2022-08-19T08:44:18;4.27;;;2.20;;
51558;SDS011;61650;48.882;2.092;2022-08-19T08:46:55;2.27;;;1.87;;
51558;SDS011;61650;48.882;2.092;2022-08-19T08:49:29;3.67;;;1.70;;
51558;SDS011;61650;48.882;2.092;2022-08-19T08:55:00;3.83;;;1.70;;
51558;SDS011;61650;48.882;2.092;2022-08-19T09:02:53;2.50;;;1.60;;
51558;SDS011;61650;48.882;2.092;2022-08-19T09:05:21;1.87;;;1.60;;
51558;SDS011;61650;48.882;2.092;2022-08-19T09:10:29;1.80;;;1.53;;
51558;SDS011;61650;48.882;2.092;2022-08-19T09:13:05;5.53;;;1.80;;
51558;SDS011;61650;48.882;2.092;2022-08-19T09:15:48;1.80;;;1.70;;
51558;SDS011;61650;48.882;2.092;2022-08-19T09:18:20;2.20;;;1.70;;
51558;SDS011;61650;48.882;2.092;2022-08-19T09:20:46;5.30;;;2.10;;
51558;SDS011;61650;48.882;2.092;2022-08-19T09:23:12;4.33;;;2.10;;
51558;SDS011;61650;48.882;2.092;2022-08-19T09:25:38;2.93;;;1.83;;
51558;SDS011;61650;48.882;2.092;2022-08-19T09:28:05;3.70;;;1.80;;
51558;SDS011;61650;48.882;2.092;2022-08-19T09:30:32;5.93;;;2.30;;
51558;SDS011;61650;48.882;2.092;2022-08-19T09:33:04;3.77;;;2.07;;
51558;SDS011;61650;48.882;2.092;2022-08-19T09:35:30;3.13;;;2.10;;
51558;SDS011;61650;48.882;2.092;2022-08-19T09:37:56;1.73;;;1.60;;
51558;SDS011;61650;48.882;2.092;2022-08-19T09:40:22;3.20;;;1.33;;
51558;SDS011;61650;48.882;2.092;2022-08-19T09:42:50;1.60;;;1.50;;
51558;SDS011;61650;48.882;2.092;2022-08-19T09:45:17;2.80;;;1.30;;
51558;SDS011;61650;48.882;2.092;2022-08-19T09:47:46;3.07;;;1.73;;
51558;SDS011;61650;48.882;2.092;2022-08-19T09:50:13;1.87;;;1.60;;
51558;SDS011;61650;48.882;2.092;2022-08-19T09:52:39;2.90;;;1.50;;
51558;SDS011;61650;48.882;2.092;2022-08-19T09:55:08;1.83;;;1.50;;
51558;SDS011;61650;48.882;2.092;2022-08-19T09:57:34;1.80;;;1.30;;
51558;SDS011;61650;48.882;2.092;2022-08-19T10:00:00;1.77;;;1.33;;
51558;SDS011;61650;48.882;2.092;2022-08-19T10:02:28;1.90;;;1.70;;
51558;SDS011;61650;48.882;2.092;2022-08-19T10:04:54;1.97;;;1.70;;
51558;SDS011;61650;48.882;2.092;2022-08-19T10:07:38;2.20;;;1.50;;
51558;SDS011;61650;48.882;2.092;2022-08-19T10:10:04;2.77;;;1.37;;
51558;SDS011;61650;48.882;2.092;2022-08-19T10:12:31;1.60;;;1.50;;
51558;SDS011;61650;48.882;2.092;2022-08-19T10:14:58;2.23;;;1.20;;
51558;SDS011;61650;48.882;2.092;2022-08-19T10:17:24;2.73;;;1.27;;
51558;SDS011;61650;48.882;2.092;2022-08-19T10:19:50;1.50;;;1.30;;
51558;SDS011;61650;48.882;2.092;2022-08-19T10:22:16;1.50;;;1.20;;
51558;SDS011;61650;48.882;2.092;2022-08-19T10:24:43;1.73;;;1.63;;
51558;SDS011;61650;48.882;2.092;2022-08-19T10:27:08;3.00;;;1.53;;
51558;SDS011;61650;48.882;2.092;2022-08-19T10:29:34;3.90;;;1.60;;
51558;SDS011;61650;48.882;2.092;2022-08-19T10:32:03;1.90;;;1.57;;
51558;SDS011;61650;48.882;2.092;2022-08-19T10:34:32;1.93;;;1.63;;
51558;SDS011;61650;48.882;2.092;2022-08-19T10:36:58;1.50;;;1.30;;
51558;SDS011;61650;48.882;2.092;2022-08-19T10:39:25;3.73;;;1.70;;
51558;SDS011;61650;48.882;2.092;2022-08-19T10:41:53;1.57;;;1.47;;
51558;SDS011;61650;48.882;2.092;2022-08-19T10:44:20;1.47;;;1.30;;
51558;SDS011;61650;48.882;2.092;2022-08-19T10:46:47;5.23;;;2.10;;
51558;SDS011;61650;48.882;2.092;2022-08-19T10:49:13;5.53;;;4.33;;
51558;SDS011;61650;48.882;2.092;2022-08-19T10:51:39;4.20;;;3.10;;
51558;SDS011;61650;48.882;2.092;2022-08-19T10:54:24;3.50;;;3.00;;
51558;SDS011;61650;48.882;2.092;2022-08-19T10:57:10;2.67;;;1.40;;
51558;SDS011;61650;48.882;2.092;2022-08-19T10:59:36;2.73;;;2.33;;
51558;SDS011;61650;48.882;2.092;2022-08-19T11:02:03;3.90;;;2.70;;
51558;SDS011;61650;48.882;2.092;2022-08-19T11:04:30;1.47;;;1.37;;
51558;SDS011;61650;48.882;2.092;2022-08-19T11:06:57;1.50;;;1.30;;
51558;SDS011;61650;48.882;2.092;2022-08-19T11:09:23;1.60;;;1.40;;
51558;SDS011;61650;48.882;2.092;2022-08-19T11:11:52;1.80;;;1.50;;
51558;SDS011;61650;48.882;2.092;2022-08-19T11:14:19;2.00;;;1.80;;
51558;SDS011;61650;48.882;2.092;2022-08-19T11:16:46;1.90;;;1.63;;
51558;SDS011;61650;48.882;2.092;2022-08-19T11:19:13;3.07;;;1.60;;
51558;SDS011;61650;48.882;2.092;2022-08-19T11:21:42;1.73;;;1.60;;
51558;SDS011;61650;48.882;2.092;2022-08-19T11:24:10;1.53;;;1.37;;
51558;SDS011;61650;48.882;2.092;2022-08-19T11:26:38;1.63;;;1.30;;
51558;SDS011;61650;48.882;2.092;2022-08-19T11:29:05;2.07;;;1.23;;
51558;SDS011;61650;48.882;2.092;2022-08-19T11:31:36;1.40;;;1.30;;
51558;SDS011;61650;48.882;2.092;2022-08-19T11:34:04;1.77;;;1.40;;
51558;SDS011;61650;48.882;2.092;2022-08-19T11:36:32;1.37;;;1.27;;
51558;SDS011;61650;48.882;2.092;2022-08-19T11:38:59;1.60;;;1.50;;
51558;SDS011;61650;48.882;2.092;2022-08-19T11:41:25;2.13;;;1.47;;
51558;SDS011;61650;48.882;2.092;2022-08-19T11:43:51;1.83;;;1.67;;
51558;SDS011;61650;48.882;2.092;2022-08-19T11:46:20;4.30;;;1.30;;
51558;SDS011;61650;48.882;2.092;2022-08-19T11:48:47;2.60;;;1.80;;
51558;SDS011;61650;48.882;2.092;2022-08-19T11:51:15;1.40;;;1.30;;
51558;SDS011;61650;48.882;2.092;2022-08-19T11:53:43;1.87;;;1.60;;
51558;SDS011;61650;48.882;2.092;2022-08-19T11:56:10;1.87;;;1.50;;
51558;SDS011;61650;48.882;2.092;2022-08-19T11:58:36;1.90;;;1.40;;
51558;SDS011;61650;48.882;2.092;2022-08-19T12:01:05;1.30;;;1.20;;
51558;SDS011;61650;48.882;2.092;2022-08-19T12:03:32;1.80;;;1.67;;
51558;SDS011;61650;48.882;2.092;2022-08-19T12:05:58;2.50;;;1.50;;
51558;SDS011;61650;48.882;2.092;2022-08-19T12:08:28;1.77;;;1.30;;
51558;SDS011;61650;48.882;2.092;2022-08-19T12:10:53;1.70;;;1.43;;
51558;SDS011;61650;48.882;2.092;2022-08-19T12:13:19;3.33;;;1.73;;
51558;SDS011;61650;48.882;2.092;2022-08-19T12:15:45;2.53;;;1.60;;
51558;SDS011;61650;48.882;2.092;2022-08-19T12:18:12;3.53;;;1.57;;
51558;SDS011;61650;48.882;2.092;2022-08-19T12:20:39;3.60;;;1.47;;
51558;SDS011;61650;48.882;2.092;2022-08-19T12:23:06;4.07;;;1.80;;
51558;SDS011;61650;48.882;2.092;2022-08-19T12:25:34;2.10;;;1.60;;
51558;SDS011;61650;48.882;2.092;2022-08-19T12:28:01;1.77;;;1.60;;
51558;SDS011;61650;48.882;2.092;2022-08-19T12:30:27;4.00;;;1.60;;
51558;SDS011;61650;48.882;2.092;2022-08-19T12:32:53;4.40;;;1.77;;
51558;SDS011;61650;48.882;2.092;2022-08-19T12:35:18;4.30;;;1.83;;
51558;SDS011;61650;48.882;2.092;2022-08-19T12:37:47;2.53;;;1.67;;
51558;SDS011;61650;48.882;2.092;2022-08-19T12:40:14;1.60;;;1.27;;
51558;SDS011;61650;48.882;2.092;2022-08-19T12:42:42;3.20;;;1.50;;
51558;SDS011;61650;48.882;2.092;2022-08-19T12:45:12;2.03;;;1.70;;
51558;SDS011;61650;48.882;2.092;2022-08-19T12:47:38;2.33;;;1.73;;
51558;SDS011;61650;48.882;2.092;2022-08-19T12:50:05;1.93;;;1.63;;
51558;SDS011;61650;48.882;2.092;2022-08-19T12:52:33;1.70;;;1.33;;
51558;SDS011;61650;48.882;2.092;2022-08-19T12:55:02;6.90;;;2.87;;
51558;SDS011;61650;48.882;2.092;2022-08-19T12:57:29;1.80;;;1.30;;
51558;SDS011;61650;48.882;2.092;2022-08-19T12:59:58;2.30;;;1.70;;
51558;SDS011;61650;48.882;2.092;2022-08-19T13:02:41;2.07;;;1.50;;
51558;SDS011;61650;48.882;2.092;2022-08-19T13:05:10;1.87;;;1.67;;
51558;SDS011;61650;48.882;2.092;2022-08-19T13:07:38;4.83;;;1.47;;
51558;SDS011;61650;48.882;2.092;2022-08-19T13:10:08;1.27;;;1.10;;
51558;SDS011;61650;48.882;2.092;2022-08-19T13:12:36;1.40;;;1.30;;
51558;SDS011;61650;48.882;2.092;2022-08-19T13:15:02;1.93;;;1.83;;
51558;SDS011;61650;48.882;2.092;2022-08-19T13:17:28;1.87;;;1.13;;
51558;SDS011;61650;48.882;2.092;2022-08-19T13:19:54;1.60;;;1.40;;
51558;SDS011;61650;48.882;2.092;2022-08-19T13:22:19;1.30;;;1.20;;
51558;SDS011;61650;48.882;2.092;2022-08-19T13:24:45;1.37;;;1.27;;
51558;SDS011;61650;48.882;2.092;2022-08-19T13:27:10;1.50;;;1.40;;
51558;SDS011;61650;48.882;2.092;2022-08-19T13:29:36;2.40;;;1.23;;
51558;SDS011;61650;48.882;2.092;2022-08-19T13:32:20;2.10;;;1.50;;
51558;SDS011;61650;48.882;2.092;2022-08-19T13:35:05;1.70;;;1.53;;
51558;SDS011;61650;48.882;2.092;2022-08-19T13:37:30;1.83;;;1.27;;
51558;SDS011;61650;48.882;2.092;2022-08-19T13:40:19;3.10;;;1.43;;
51558;SDS011;61650;48.882;2.092;2022-08-19T13:42:52;2.50;;;1.20;;
51558;SDS011;61650;48.882;2.092;2022-08-19T13:45:19;2.97;;;1.27;;
51558;SDS011;61650;48.882;2.092;2022-08-19T13:47:47;2.50;;;1.37;;
51558;SDS011;61650;48.882;2.092;2022-08-19T13:50:16;1.67;;;1.23;;
51558;SDS011;61650;48.882;2.092;2022-08-19T13:52:43;2.17;;;1.13;;
51558;SDS011;61650;48.882;2.092;2022-08-19T13:55:09;2.50;;;1.20;;
51558;SDS011;61650;48.882;2.092;2022-08-19T13:57:36;1.30;;;1.20;;
51558;SDS011;61650;48.882;2.092;2022-08-19T14:00:06;1.27;;;1.10;;
51558;SDS011;61650;48.882;2.092;2022-08-19T14:02:38;2.60;;;1.40;;
51558;SDS011;61650;48.882;2.092;2022-08-19T14:05:05;1.57;;;1.20;;
51558;SDS011;61650;48.882;2.092;2022-08-19T14:07:33;1.00;;;0.90;;
51558;SDS011;61650;48.882;2.092;2022-08-19T14:09:59;1.40;;;1.20;;
51558;SDS011;61650;48.882;2.092;2022-08-19T14:12:24;3.73;;;0.90;;
51558;SDS011;61650;48.882;2.092;2022-08-19T14:14:50;2.07;;;1.20;;
51558;SDS011;61650;48.882;2.092;2022-08-19T14:17:15;3.77;;;1.60;;
51558;SDS011;61650;48.882;2.092;2022-08-19T14:19:41;2.00;;;1.60;;
51558;SDS011;61650;48.882;2.092;2022-08-19T14:22:08;2.83;;;1.50;;
51558;SDS011;61650;48.882;2.092;2022-08-19T14:24:34;1.53;;;1.43;;
51558;SDS011;61650;48.882;2.092;2022-08-19T14:27:01;3.73;;;1.40;;
51558;SDS011;61650;48.882;2.092;2022-08-19T14:29:28;1.60;;;1.20;;
51558;SDS011;61650;48.882;2.092;2022-08-19T14:31:54;1.87;;;1.30;;
51558;SDS011;61650;48.882;2.092;2022-08-19T14:34:21;1.40;;;1.30;;
51558;SDS011;61650;48.882;2.092;2022-08-19T14:36:47;1.90;;;1.30;;
51558;SDS011;61650;48.882;2.092;2022-08-19T14:39:13;1.40;;;1.30;;
51558;SDS011;61650;48.882;2.092;2022-08-19T14:41:39;1.53;;;1.30;;
51558;SDS011;61650;48.882;2.092;2022-08-19T14:44:07;1.43;;;1.20;;
51558;SDS011;61650;48.882;2.092;2022-08-19T14:46:34;1.50;;;1.33;;
51558;SDS011;61650;48.882;2.092;2022-08-19T14:49:00;1.40;;;1.10;;
51558;SDS011;61650;48.882;2.092;2022-08-19T14:51:26;2.43;;;1.70;;
51558;SDS011;61650;48.882;2.092;2022-08-19T14:53:52;2.80;;;1.37;;
51558;SDS011;61650;48.882;2.092;2022-08-19T14:56:20;1.33;;;1.23;;
51558;SDS011;61650;48.882;2.092;2022-08-19T14:58:47;1.77;;;1.23;;
51558;SDS011;61650;48.882;2.092;2022-08-19T15:01:16;2.60;;;1.50;;
51558;SDS011;61650;48.882;2.092;2022-08-19T15:03:45;2.47;;;1.40;;
51558;SDS011;61650;48.882;2.092;2022-08-19T15:06:12;2.00;;;1.40;;